createdAt,value
2022-09-24T00:01:35.334Z,26.24
2022-09-24T00:04:07.616Z,25.89
2022-09-24T00:06:41.017Z,26.92
2022-09-24T00:09:11.672Z,27.18
2022-09-24T00:11:43.140Z,27.14
2022-09-24T00:14:13.313Z,27.55
2022-09-24T00:16:44.055Z,27.64
2022-09-24T00:19:14.976Z,28.03
2022-09-24T00:21:44.951Z,27.27
2022-09-24T00:24:36.801Z,27.55
2022-09-24T00:27:07.381Z,26.15
2022-09-24T00:29:37.516Z,27.51
2022-09-24T00:32:07.634Z,26.75
2022-09-24T00:34:37.674Z,26.82
2022-09-24T00:37:07.701Z,26.63
2022-09-24T00:39:38.574Z,26.38
2022-09-24T00:42:10.387Z,27.68
2022-09-24T00:44:52.975Z,27.55
2022-09-24T00:47:32.570Z,27.43
2022-09-24T00:50:09.510Z,27.68
2022-09-24T00:52:43.612Z,27.27
2022-09-24T00:55:15.343Z,26.93
2022-09-24T00:57:46.703Z,26.40
2022-09-24T01:00:17.057Z,26.78
2022-09-24T01:02:50.896Z,26.79
2022-09-24T01:05:21.182Z,26.36
2022-09-24T01:07:51.415Z,28.06
2022-09-24T01:10:42.631Z,27.98
2022-09-24T01:13:29.275Z,28.67
2022-09-24T01:16:04.244Z,27.09
2022-09-24T01:18:40.032Z,28.07
2022-09-24T01:21:23.942Z,26.91
2022-09-24T01:24:04.278Z,27.04
2022-09-24T01:26:57.122Z,26.68
2022-09-24T01:29:32.434Z,27.37
2022-09-24T01:32:06.504Z,28.15
2022-09-24T01:34:42.363Z,27.28
2022-09-24T01:37:16.490Z,27.28
2022-09-24T01:39:48.268Z,28.13
2022-09-24T01:42:20.527Z,27.88
2022-09-24T01:44:50.930Z,27.84
2022-09-24T01:47:25.638Z,27.91
2022-09-24T01:49:55.830Z,27.63
2022-09-24T01:52:29.451Z,27.33
2022-09-24T01:55:03.443Z,27.05
2022-09-24T01:57:38.965Z,27.71
2022-09-24T02:00:13.088Z,27.09
2022-09-24T02:02:47.108Z,29.12
2022-09-24T02:05:21.175Z,28.85
2022-09-24T02:07:58.480Z,28.95
2022-09-24T02:10:33.338Z,26.82
2022-09-24T02:13:06.902Z,28.37
2022-09-24T02:15:41.464Z,28.34
2022-09-24T02:18:16.977Z,27.55
2022-09-24T02:20:48.638Z,29.55
2022-09-24T02:23:21.006Z,29.64
2022-09-24T02:25:55.708Z,29.27
2022-09-24T02:28:26.920Z,27.56
2022-09-24T02:31:00.787Z,28.51
2022-09-24T02:33:51.550Z,28.99
2022-09-24T02:36:25.078Z,28.18
2022-09-24T02:38:55.198Z,27.85
2022-09-24T02:41:26.185Z,28.44
2022-09-24T02:43:56.170Z,29.87
2022-09-24T02:46:26.377Z,29.56
2022-09-24T02:48:56.449Z,28.84
2022-09-24T02:51:26.718Z,28.45
2022-09-24T02:53:56.766Z,33.03
2022-09-24T02:56:26.869Z,32.22
2022-09-24T02:58:56.912Z,29.15
2022-09-24T03:01:27.330Z,29.13
2022-09-24T03:03:57.977Z,29.22
2022-09-24T03:06:27.979Z,29.00
2022-09-24T03:08:58.484Z,28.81
2022-09-24T03:11:29.016Z,30.50
2022-09-24T03:13:59.304Z,30.18
2022-09-24T03:16:29.606Z,30.78
2022-09-24T03:18:59.717Z,31.87
2022-09-24T03:21:29.809Z,31.13
2022-09-24T03:24:00.206Z,31.38
2022-09-24T03:26:30.341Z,30.85
2022-09-24T03:29:00.376Z,31.72
2022-09-24T03:31:30.433Z,31.43
2022-09-24T03:34:00.379Z,31.54
2022-09-24T03:36:30.414Z,30.50
2022-09-24T03:39:00.432Z,30.06
2022-09-24T03:41:30.665Z,29.43
2022-09-24T03:44:00.613Z,30.32
2022-09-24T03:46:30.804Z,31.80
2022-09-24T03:49:01.227Z,30.99
2022-09-24T03:51:31.283Z,32.16
2022-09-24T03:54:01.326Z,34.50
2022-09-24T03:56:31.531Z,31.63
2022-09-24T03:59:01.568Z,34.68
2022-09-24T04:01:32.544Z,32.82
2022-09-24T04:04:03.285Z,36.74
2022-09-24T04:06:33.488Z,33.55
2022-09-24T04:09:03.483Z,32.78
2022-09-24T04:11:35.221Z,34.13
2022-09-24T04:14:05.349Z,32.68
2022-09-24T04:16:36.591Z,32.47
2022-09-24T04:19:08.179Z,32.16
2022-09-24T04:21:38.283Z,34.14
2022-09-24T04:24:08.414Z,35.70
2022-09-24T04:26:38.598Z,35.06
2022-09-24T04:29:08.635Z,33.62
2022-09-24T04:31:39.676Z,31.74
2022-09-24T04:34:10.208Z,33.05
2022-09-24T04:36:40.506Z,32.75
2022-09-24T04:39:11.878Z,32.19
2022-09-24T04:41:41.914Z,32.84
2022-09-24T04:44:13.532Z,34.64
2022-09-24T04:46:43.635Z,33.18
2022-09-24T04:49:14.298Z,34.50
2022-09-24T04:51:44.375Z,36.44
2022-09-24T04:54:14.420Z,36.72
2022-09-24T04:56:44.482Z,33.15
2022-09-24T04:59:14.484Z,34.19
2022-09-24T05:01:44.606Z,33.12
2022-09-24T05:04:14.903Z,33.00
2022-09-24T05:06:44.977Z,33.55
2022-09-24T05:09:15.194Z,34.18
2022-09-24T05:11:45.372Z,33.84
2022-09-24T05:14:15.379Z,32.83
2022-09-24T05:16:45.454Z,33.19
2022-09-24T05:19:15.478Z,32.53
2022-09-24T05:21:46.378Z,32.95
2022-09-24T05:24:16.329Z,34.02
2022-09-24T05:27:03.901Z,34.70
2022-09-24T05:29:33.936Z,34.13
2022-09-24T05:32:05.634Z,35.85
2022-09-24T05:34:35.697Z,39.25
2022-09-24T05:37:05.937Z,39.17
2022-09-24T05:39:36.073Z,40.88
2022-09-24T05:42:07.663Z,41.33
2022-09-24T05:44:38.138Z,39.50
2022-09-24T05:47:08.234Z,38.18
2022-09-24T05:49:38.334Z,39.65
2022-09-24T05:52:10.011Z,40.82
2022-09-24T05:54:40.148Z,40.64
2022-09-24T05:57:10.099Z,40.90
2022-09-24T05:59:40.084Z,41.21
2022-09-24T06:02:12.059Z,43.54
2022-09-24T06:04:42.124Z,43.04
2022-09-24T06:07:12.206Z,48.25
2022-09-24T06:09:42.158Z,47.82
2022-09-24T06:12:12.124Z,48.61
2022-09-24T06:14:42.531Z,47.26
2022-09-24T06:17:12.591Z,45.68
2022-09-24T06:19:43.020Z,45.98
2022-09-24T06:22:13.108Z,50.08
2022-09-24T06:24:43.188Z,47.71
2022-09-24T06:27:13.180Z,46.66
2022-09-24T06:29:43.148Z,43.90
2022-09-24T06:32:13.199Z,43.23
2022-09-24T06:34:43.180Z,42.91
2022-09-24T06:37:13.146Z,45.42
2022-09-24T06:39:43.215Z,44.14
2022-09-24T06:42:14.246Z,44.39
2022-09-24T06:44:44.213Z,45.67
2022-09-24T06:47:14.174Z,46.73
2022-09-24T06:49:44.405Z,44.13
2022-09-24T06:52:14.434Z,43.31
2022-09-24T06:54:44.436Z,41.73
2022-09-24T06:57:15.075Z,41.05
2022-09-24T06:59:45.267Z,41.59
2022-09-24T07:02:15.326Z,45.12
2022-09-24T07:04:45.345Z,43.03
2022-09-24T07:07:30.606Z,41.29
2022-09-24T07:10:01.564Z,40.05
2022-09-24T07:12:32.291Z,39.74
2022-09-24T07:15:02.436Z,39.20
2022-09-24T07:17:34.060Z,39.07
2022-09-24T07:20:05.187Z,38.81
2022-09-24T07:22:38.683Z,38.70
2022-09-24T07:25:11.796Z,37.90
2022-09-24T07:27:41.846Z,39.13
2022-09-24T07:30:13.528Z,36.65
2022-09-24T07:32:44.188Z,35.27
2022-09-24T07:35:14.237Z,34.97
2022-09-24T07:37:44.263Z,36.84
2022-09-24T07:40:14.437Z,34.97
2022-09-24T07:42:49.538Z,35.98
2022-09-24T07:45:19.624Z,35.53
2022-09-24T07:47:49.785Z,34.73
2022-09-24T07:50:19.856Z,31.60
2022-09-24T07:52:52.492Z,31.06
2022-09-24T07:55:22.522Z,30.24
2022-09-24T07:57:53.782Z,29.88
2022-09-24T08:00:25.366Z,26.69
2022-09-24T08:02:56.582Z,29.34
2022-09-24T08:05:26.702Z,33.66
2022-09-24T08:07:58.140Z,21.78
2022-09-24T08:10:29.009Z,20.79
2022-09-24T08:13:02.716Z,18.27
2022-09-24T08:15:32.817Z,17.02
2022-09-24T08:18:03.635Z,16.32
2022-09-24T08:20:34.713Z,16.21
2022-09-24T08:23:05.751Z,16.77
2022-09-24T08:25:35.819Z,16.73
2022-09-24T08:28:07.208Z,15.41
2022-09-24T08:30:37.340Z,15.73
2022-09-24T08:33:07.462Z,13.79
2022-09-24T08:35:40.055Z,12.40
2022-09-24T08:38:10.760Z,12.94
2022-09-24T08:40:46.679Z,12.60
2022-09-24T08:43:32.075Z,13.28
2022-09-24T08:46:23.447Z,15.04
2022-09-24T08:48:54.775Z,14.03
2022-09-24T08:51:24.786Z,16.05
2022-09-24T08:54:01.509Z,17.86
2022-09-24T08:56:35.213Z,18.25
2022-09-24T08:59:12.364Z,18.01
2022-09-24T09:01:47.819Z,17.95
2022-09-24T09:04:26.696Z,16.35
2022-09-24T09:07:11.834Z,17.54
2022-09-24T09:09:46.122Z,18.36
2022-09-24T09:12:20.749Z,18.16
2022-09-24T09:14:56.794Z,18.16
2022-09-24T09:17:37.768Z,18.56
2022-09-24T09:20:12.420Z,18.70
2022-09-24T09:22:46.023Z,19.29
2022-09-24T09:25:19.985Z,18.46
2022-09-24T09:27:54.818Z,17.43
2022-09-24T09:30:25.359Z,17.17
2022-09-24T09:33:10.234Z,15.15
2022-09-24T09:35:48.065Z,9.77
2022-09-24T09:38:24.196Z,6.68
2022-09-24T09:41:01.917Z,8.65
2022-09-24T09:43:32.094Z,8.87
2022-09-24T09:46:13.838Z,9.43
2022-09-24T09:48:45.880Z,9.30
2022-09-24T09:51:22.575Z,9.90
2022-09-24T09:54:00.274Z,10.12
2022-09-24T09:56:32.145Z,10.77
2022-09-24T09:59:17.921Z,11.46
2022-09-24T10:01:55.753Z,8.66
2022-09-24T10:04:40.981Z,8.22
2022-09-24T10:07:12.849Z,8.46
2022-09-24T10:09:44.087Z,7.96
2022-09-24T10:12:19.866Z,6.83
2022-09-24T10:14:59.363Z,6.91
2022-09-24T10:17:31.814Z,6.59
2022-09-24T10:20:03.916Z,7.36
2022-09-24T10:22:34.081Z,8.05
2022-09-24T10:25:05.191Z,6.87
2022-09-24T10:27:37.525Z,5.86
2022-09-24T10:30:31.493Z,8.05
2022-09-24T10:33:02.949Z,5.86
2022-09-24T10:35:35.747Z,5.22
2022-09-24T10:38:16.480Z,6.01
2022-09-24T10:40:47.145Z,5.49
2022-09-24T10:43:21.592Z,5.75
2022-09-24T10:46:05.802Z,5.57
2022-09-24T10:48:41.349Z,5.85
2022-09-24T10:51:24.193Z,5.84
2022-09-24T10:54:07.718Z,5.75
2022-09-24T10:56:45.999Z,5.32
2022-09-24T10:59:39.598Z,4.97
2022-09-24T11:02:25.484Z,5.99
2022-09-24T11:04:57.954Z,5.16
2022-09-24T11:07:46.676Z,4.37
2022-09-24T11:10:23.922Z,5.13
2022-09-24T11:13:04.426Z,5.11
2022-09-24T11:15:53.586Z,4.83
2022-09-24T11:18:33.379Z,5.69
2022-09-24T11:21:12.600Z,5.59
2022-09-24T11:23:58.043Z,6.60
2022-09-24T11:26:59.901Z,6.40
2022-09-24T11:29:49.895Z,5.74
2022-09-24T11:32:27.168Z,4.59
2022-09-24T11:35:07.777Z,4.70
2022-09-24T11:37:48.054Z,4.29
2022-09-24T11:40:44.975Z,4.73
2022-09-24T11:43:28.254Z,4.06
2022-09-24T11:46:12.093Z,4.43
2022-09-24T11:48:54.819Z,4.76
2022-09-24T11:51:34.683Z,4.77
2022-09-24T11:54:10.073Z,5.01
2022-09-24T11:56:43.067Z,5.71
2022-09-24T11:59:24.647Z,5.68
2022-09-24T12:01:58.831Z,5.56
2022-09-24T12:04:38.872Z,6.34
2022-09-24T12:07:13.856Z,6.68
2022-09-24T12:09:49.119Z,5.68
2022-09-24T12:12:23.099Z,5.64
2022-09-24T12:14:57.874Z,5.65
2022-09-24T12:17:32.724Z,5.75
2022-09-24T12:20:08.280Z,5.64
2022-09-24T12:22:40.305Z,5.68
2022-09-24T12:25:24.904Z,5.85
2022-09-24T12:28:01.980Z,5.55
2022-09-24T12:31:11.363Z,5.61
2022-09-24T12:33:48.709Z,4.82
2022-09-24T12:36:25.419Z,5.03
2022-09-24T12:39:01.192Z,5.65
2022-09-24T12:41:34.061Z,4.72
2022-09-24T12:44:12.230Z,4.14
2022-09-24T12:46:45.224Z,3.62
2022-09-24T12:49:26.558Z,3.56
2022-09-24T12:52:19.921Z,4.07
2022-09-24T12:55:03.333Z,5.74
2022-09-24T12:57:59.049Z,4.68
2022-09-24T13:00:45.677Z,3.23
2022-09-24T13:03:46.015Z,3.08
2022-09-24T13:06:44.904Z,3.08
2022-09-24T13:09:40.878Z,3.18
2022-09-24T13:12:25.096Z,2.94
2022-09-24T13:15:01.473Z,3.07
2022-09-24T13:17:34.604Z,3.07
2022-09-24T13:20:08.607Z,3.41
2022-09-24T13:22:38.891Z,4.03
2022-09-24T13:25:20.578Z,3.78
2022-09-24T13:27:59.936Z,3.32
2022-09-24T13:30:39.978Z,3.11
2022-09-24T13:33:21.328Z,3.01
2022-09-24T13:36:03.360Z,3.20
2022-09-24T13:38:36.362Z,2.85
2022-09-24T13:41:15.666Z,2.67
2022-09-24T13:43:49.827Z,2.85
2022-09-24T13:46:22.000Z,3.01
2022-09-24T13:48:54.888Z,3.49
2022-09-24T13:51:28.529Z,2.65
2022-09-24T13:54:04.252Z,2.61
2022-09-24T13:56:34.535Z,2.90
2022-09-24T13:59:12.405Z,2.73
2022-09-24T14:01:43.800Z,2.60
2022-09-24T14:04:19.676Z,2.91
2022-09-24T14:06:53.328Z,2.52
2022-09-24T14:09:31.619Z,2.96
2022-09-24T14:12:03.370Z,2.94
2022-09-24T14:14:36.609Z,3.15
2022-09-24T14:17:10.705Z,3.64
2022-09-24T14:19:40.986Z,3.36
2022-09-24T14:22:16.917Z,4.03
2022-09-24T14:24:53.971Z,4.24
2022-09-24T14:27:26.345Z,4.01
2022-09-24T14:30:00.067Z,4.04
2022-09-24T14:32:32.822Z,4.44
2022-09-24T14:35:06.684Z,4.20
2022-09-24T14:37:39.537Z,3.99
2022-09-24T14:40:14.217Z,3.94
2022-09-24T14:42:47.545Z,3.69
2022-09-24T14:45:21.567Z,3.81
2022-09-24T14:48:02.846Z,3.90
2022-09-24T14:50:39.003Z,4.33
2022-09-24T14:53:22.290Z,4.02
2022-09-24T14:55:52.646Z,4.20
2022-09-24T14:58:42.502Z,4.31
2022-09-24T15:01:17.429Z,3.90
2022-09-24T15:03:49.918Z,4.20
2022-09-24T15:06:22.851Z,3.50
2022-09-24T15:09:09.226Z,3.59
2022-09-24T15:11:43.552Z,3.95
2022-09-24T15:14:25.216Z,4.15
2022-09-24T15:16:56.926Z,3.82
2022-09-24T15:19:30.831Z,3.47
2022-09-24T15:22:02.055Z,4.22
2022-09-24T15:24:32.261Z,4.27
2022-09-24T15:27:04.762Z,4.02
2022-09-24T15:29:35.184Z,3.99
2022-09-24T15:32:14.033Z,3.81
2022-09-24T15:34:44.548Z,3.45
2022-09-24T15:37:17.834Z,3.35
2022-09-24T15:39:49.618Z,3.61
2022-09-24T15:42:21.376Z,3.95
2022-09-24T15:44:51.810Z,4.21
2022-09-24T15:47:22.101Z,5.22
2022-09-24T15:49:52.146Z,6.31
2022-09-24T15:52:26.373Z,5.41
2022-09-24T15:54:57.931Z,4.48
2022-09-24T15:57:29.279Z,5.35
2022-09-24T15:59:59.393Z,6.45
2022-09-24T16:02:32.865Z,7.72
2022-09-24T16:05:04.310Z,8.54
2022-09-24T16:07:34.655Z,6.42
2022-09-24T16:10:04.989Z,6.99
2022-09-24T16:12:35.158Z,8.00
2022-09-24T16:15:05.419Z,7.27
2022-09-24T16:17:35.445Z,8.36
2022-09-24T16:20:06.908Z,7.58
2022-09-24T16:22:36.926Z,8.74
2022-09-24T16:25:07.899Z,14.34
2022-09-24T16:27:38.610Z,14.04
2022-09-24T16:30:09.675Z,9.41
2022-09-24T16:32:39.747Z,10.61
2022-09-24T16:35:11.233Z,11.48
2022-09-24T16:37:41.294Z,12.30
2022-09-24T16:40:13.120Z,11.60
2022-09-24T16:42:43.222Z,13.52
2022-09-24T16:45:14.109Z,10.16
2022-09-24T16:47:44.126Z,10.28
2022-09-24T16:50:14.196Z,10.56
2022-09-24T16:52:45.933Z,10.85
2022-09-24T16:55:15.908Z,11.64
2022-09-24T16:57:45.898Z,11.10
2022-09-24T17:00:16.526Z,11.65
2022-09-24T17:02:46.631Z,12.56
2022-09-24T17:05:16.858Z,13.16
2022-09-24T17:07:46.891Z,11.48
2022-09-24T17:10:18.182Z,9.90
2022-09-24T17:12:50.606Z,9.21
2022-09-24T17:15:21.524Z,8.71
2022-09-24T17:17:52.126Z,9.14
2022-09-24T17:20:22.576Z,9.07
2022-09-24T17:22:53.040Z,8.86
2022-09-24T17:25:23.188Z,9.52
2022-09-24T17:27:53.540Z,10.20
2022-09-24T17:30:23.604Z,9.96
2022-09-24T17:32:53.625Z,12.22
2022-09-24T17:35:23.933Z,16.36
2022-09-24T17:37:53.957Z,18.71
2022-09-24T17:40:24.681Z,18.32
2022-09-24T17:42:54.752Z,19.22
2022-09-24T17:45:25.040Z,19.01
2022-09-24T17:47:57.921Z,17.33
2022-09-24T17:50:29.868Z,16.46
2022-09-24T17:52:59.967Z,21.48
2022-09-24T17:55:29.964Z,20.01
2022-09-24T17:57:59.989Z,18.77
2022-09-24T18:00:31.491Z,18.25
2022-09-24T18:03:01.810Z,16.41
2022-09-24T18:05:31.918Z,16.58
2022-09-24T18:08:02.479Z,16.81
2022-09-24T18:10:32.800Z,17.16
2022-09-24T18:13:03.369Z,18.21
2022-09-24T18:15:37.090Z,18.33
2022-09-24T18:18:09.286Z,17.58
2022-09-24T18:20:42.227Z,16.87
2022-09-24T18:23:12.888Z,17.61
2022-09-24T18:25:43.105Z,18.19
2022-09-24T18:28:17.995Z,20.04
2022-09-24T18:30:49.188Z,22.54
2022-09-24T18:33:19.188Z,21.71
2022-09-24T18:35:49.365Z,19.82
2022-09-24T18:38:21.081Z,19.75
2022-09-24T18:40:51.179Z,23.15
2022-09-24T18:43:21.226Z,21.73
2022-09-24T18:45:51.394Z,20.65
2022-09-24T18:48:21.929Z,21.76
2022-09-24T18:50:51.934Z,22.91
2022-09-24T18:53:21.988Z,28.34
2022-09-24T18:55:52.015Z,29.59
2022-09-24T18:58:22.040Z,28.36
2022-09-24T19:00:54.069Z,22.46
2022-09-24T19:03:25.222Z,21.22
2022-09-24T19:05:56.295Z,20.90
2022-09-24T19:08:26.800Z,21.15
2022-09-24T19:10:56.843Z,22.87
2022-09-24T19:13:26.888Z,24.23
2022-09-24T19:15:56.936Z,24.59
2022-09-24T19:18:27.177Z,25.70
2022-09-24T19:20:58.067Z,24.87
2022-09-24T19:23:28.082Z,27.16
2022-09-24T19:26:03.129Z,28.02
2022-09-24T19:28:33.180Z,26.97
2022-09-24T19:31:03.962Z,26.64
2022-09-24T19:33:34.717Z,32.73
2022-09-24T19:36:04.951Z,35.94
2022-09-24T19:38:37.076Z,29.41
2022-09-24T19:41:10.567Z,27.50
2022-09-24T19:43:41.013Z,28.25
2022-09-24T19:46:12.249Z,28.04
2022-09-24T19:48:43.427Z,29.49
2022-09-24T19:51:15.307Z,30.02
2022-09-24T19:53:48.809Z,30.91
2022-09-24T19:56:21.084Z,32.89
2022-09-24T19:58:53.472Z,32.01
2022-09-24T20:01:24.860Z,35.07
2022-09-24T20:03:55.383Z,32.89
2022-09-24T20:06:28.946Z,32.20
2022-09-24T20:08:59.357Z,31.75
2022-09-24T20:11:32.414Z,30.17
2022-09-24T20:14:06.016Z,30.98
2022-09-24T20:16:36.391Z,32.27
2022-09-24T20:19:06.451Z,34.19
2022-09-24T20:21:36.992Z,34.50
2022-09-24T20:24:08.257Z,35.81
2022-09-24T20:26:56.011Z,35.80
2022-09-24T20:29:26.224Z,35.55
2022-09-24T20:31:57.058Z,36.61
2022-09-24T20:34:33.690Z,38.07
2022-09-24T20:37:05.790Z,38.96
2022-09-24T20:39:35.947Z,39.60
2022-09-24T20:42:06.359Z,40.63
2022-09-24T20:44:39.522Z,40.94
2022-09-24T20:47:09.555Z,43.38
2022-09-24T20:49:39.611Z,42.18
2022-09-24T20:52:09.749Z,41.71
2022-09-24T20:54:40.010Z,44.83
2022-09-24T20:57:10.177Z,44.09
2022-09-24T20:59:40.210Z,45.28
2022-09-24T21:02:12.381Z,47.47
2022-09-24T21:04:43.402Z,47.86
2022-09-24T21:07:13.457Z,47.82
2022-09-24T21:09:44.232Z,47.57
2022-09-24T21:12:14.230Z,48.23
2022-09-24T21:14:44.613Z,48.92
2022-09-24T21:17:15.004Z,51.34
2022-09-24T21:19:45.083Z,55.78
2022-09-24T21:22:15.625Z,56.01
2022-09-24T21:24:46.023Z,54.70
2022-09-24T21:27:18.961Z,54.08
2022-09-24T21:29:50.099Z,53.63
2022-09-24T21:32:20.303Z,53.39
2022-09-24T21:34:50.845Z,52.79
2022-09-24T21:37:21.066Z,54.27
2022-09-24T21:39:51.190Z,54.03
2022-09-24T21:42:21.288Z,53.21
2022-09-24T21:44:51.232Z,53.46
2022-09-24T21:47:21.355Z,53.23
2022-09-24T21:49:52.390Z,54.03
2022-09-24T21:52:22.693Z,54.96
2022-09-24T21:54:52.769Z,54.14
2022-09-24T21:57:22.929Z,54.21
2022-09-24T22:00:03.983Z,55.39
2022-09-24T22:02:34.250Z,56.61
2022-09-24T22:05:04.499Z,55.40
2022-09-24T22:07:34.759Z,56.72
2022-09-24T22:10:04.980Z,57.78
2022-09-24T22:12:37.347Z,58.91
2022-09-24T22:15:08.189Z,60.21
2022-09-24T22:17:38.134Z,61.15
2022-09-24T22:20:09.240Z,65.75
2022-09-24T22:22:39.311Z,68.69
2022-09-24T22:25:10.120Z,70.69
2022-09-24T22:27:40.085Z,70.85
2022-09-24T22:30:11.666Z,71.34
2022-09-24T22:32:41.826Z,75.43
2022-09-24T22:35:31.007Z,75.44
2022-09-24T22:38:01.486Z,72.82
2022-09-24T22:40:31.626Z,71.86
2022-09-24T22:43:02.065Z,76.80
2022-09-24T22:45:32.610Z,75.11
2022-09-24T22:48:03.315Z,71.11
2022-09-24T22:50:33.280Z,73.69
2022-09-24T22:53:03.487Z,74.41
2022-09-24T22:55:36.996Z,76.64
2022-09-24T22:58:07.895Z,78.04
2022-09-24T23:00:38.686Z,81.50
2022-09-24T23:03:09.514Z,82.61
2022-09-24T23:05:39.534Z,81.22
2022-09-24T23:08:09.805Z,79.40
2022-09-24T23:10:39.791Z,80.27
2022-09-24T23:13:10.433Z,84.45
2022-09-24T23:15:40.882Z,86.42
2022-09-24T23:18:11.385Z,87.78
2022-09-24T23:20:41.874Z,86.86
2022-09-24T23:23:14.736Z,87.28
2022-09-24T23:25:45.321Z,85.07
2022-09-24T23:28:15.681Z,86.28
2022-09-24T23:30:49.783Z,87.38
2022-09-24T23:33:20.632Z,87.82
2022-09-24T23:35:54.598Z,87.00
2022-09-24T23:38:27.231Z,88.55
2022-09-24T23:41:02.235Z,86.32
2022-09-24T23:43:33.291Z,88.00
2022-09-24T23:46:03.632Z,87.50
2022-09-24T23:48:34.325Z,86.07
2022-09-24T23:51:07.900Z,85.87
2022-09-24T23:53:39.738Z,86.05
2022-09-24T23:56:10.001Z,85.29
2022-09-24T23:58:42.089Z,86.26
